Time;durP1;ratioP1;P1;durP2;ratioP2;P2;SDS_P1;SDS_P2;PMS_P1;PMS_P2;Temp;Humidity;BMP_temperature;BMP_pressure;BME280_temperature;BME280_humidity;BME280_pressure;Samples;Min_cycle;Max_cycle;Signal;HPM_P1;HPM_P2
2022/06/20 00:02:12;;;;;;;9.43;4.45;;;21.40;83.90;;;;;;4911552;29;20112;-89
2022/06/20 00:04:37;;;;;;;11.48;5.55;;;21.40;83.70;;;;;;4914421;29;20028;-91
2022/06/20 00:07:03;;;;;;;9.32;5.35;;;21.30;84.20;;;;;;4910563;29;20377;-90
2022/06/20 00:09:29;;;;;;;14.32;4.88;;;21.30;84.00;;;;;;4919992;29;20027;-90
2022/06/20 00:11:54;;;;;;;8.90;4.50;;;21.30;84.10;;;;;;4927714;29;20044;-89
2022/06/20 00:14:21;;;;;;;8.48;4.78;;;21.30;84.30;;;;;;4897804;29;20028;-90
2022/06/20 00:16:47;;;;;;;8.85;4.90;;;21.30;84.30;;;;;;4919719;29;20036;-90
2022/06/20 00:19:13;;;;;;;7.57;4.30;;;21.20;84.20;;;;;;4900388;29;20492;-90
2022/06/20 00:21:40;;;;;;;8.43;4.47;;;21.20;84.40;;;;;;4896434;29;20068;-91
2022/06/20 00:24:07;;;;;;;9.63;4.85;;;21.20;84.50;;;;;;4919121;29;20404;-88
2022/06/20 00:26:34;;;;;;;10.80;5.07;;;21.20;84.40;;;;;;4904972;29;20116;-91
2022/06/20 00:29:05;;;;;;;11.20;4.68;;;21.20;83.50;;;;;;4903443;29;20508;-89
2022/06/20 00:31:31;;;;;;;5.93;4.55;;;21.30;83.80;;;;;;4928382;29;20067;-89
2022/06/20 00:33:57;;;;;;;9.80;5.05;;;21.30;84.10;;;;;;4917719;29;20032;-90
2022/06/20 00:36:23;;;;;;;9.20;5.63;;;21.30;83.00;;;;;;4927509;29;20028;-89
2022/06/20 00:38:54;;;;;;;7.82;5.03;;;21.20;83.30;;;;;;4908341;29;20033;-90
2022/06/20 00:41:24;;;;;;;6.40;4.35;;;21.20;83.80;;;;;;4916970;29;20484;-89
2022/06/20 00:43:52;;;;;;;9.15;4.78;;;21.20;83.50;;;;;;4915849;29;20079;-90
2022/06/20 00:46:22;;;;;;;7.22;4.60;;;21.20;83.30;;;;;;4918552;29;20059;-88
2022/06/20 00:49:23;;;;;;;6.28;4.68;;;21.20;83.10;;;;;;4915054;29;20076;-90
2022/06/20 00:52:07;;;;;;;6.85;4.28;;;21.20;83.20;;;;;;4913516;29;20082;-88
2022/06/20 00:54:41;;;;;;;8.13;4.60;;;21.20;83.50;;;;;;4915317;29;20060;-89
2022/06/20 00:57:27;;;;;;;7.88;4.55;;;21.10;83.20;;;;;;4928741;29;20028;-90
2022/06/20 00:59:59;;;;;;;8.40;4.90;;;21.20;83.40;;;;;;4910829;29;20063;-90
2022/06/20 01:02:31;;;;;;;7.93;4.80;;;21.10;83.40;;;;;;4904903;29;20048;-89
2022/06/20 01:05:17;;;;;;;6.93;4.80;;;21.10;83.60;;;;;;4913515;29;20401;-89
2022/06/20 01:07:52;;;;;;;8.95;4.00;;;21.10;83.70;;;;;;4879485;29;20068;-89
2022/06/20 01:10:19;;;;;;;13.50;4.90;;;21.10;83.60;;;;;;4903778;29;20096;-91
2022/06/20 01:12:55;;;;;;;7.75;4.82;;;21.10;83.50;;;;;;4912056;29;20071;-89
2022/06/20 01:15:26;;;;;;;7.30;3.95;;;21.10;83.70;;;;;;4901036;29;20051;-90
2022/06/20 01:17:52;;;;;;;7.55;4.63;;;21.00;83.80;;;;;;4932366;29;20039;-90
2022/06/20 01:20:29;;;;;;;7.28;4.60;;;21.00;83.90;;;;;;4901257;29;20024;-90
2022/06/20 01:23:30;;;;;;;8.77;4.45;;;21.00;84.20;;;;;;4924153;29;20035;-89
2022/06/20 01:26:02;;;;;;;;;;;21.00;84.30;;;;;;4878650;29;20043;-89
2022/06/20 01:28:32;;;;;;;11.73;5.03;;;20.90;84.20;;;;;;4894012;29;19911;-90
2022/06/20 01:30:59;;;;;;;8.23;4.68;;;20.90;84.60;;;;;;4922088;29;20047;-87
2022/06/20 01:33:26;;;;;;;13.15;4.88;;;20.80;85.10;;;;;;4922273;29;20055;-89
2022/06/20 01:38:38;;;;;;;6.22;4.57;;;20.70;85.90;;;;;;4913444;29;20570;-90
2022/06/20 01:43:50;;;;;;;7.15;4.80;;;20.60;86.00;;;;;;4926804;29;20079;-90
2022/06/20 01:46:17;;;;;;;6.50;5.78;;;20.60;86.40;;;;;;4905408;29;20040;-90
2022/06/20 01:48:51;;;;;;;9.23;4.50;;;20.60;86.70;;;;;;4903502;29;20029;-91
2022/06/20 01:51:24;;;;;;;8.05;4.53;;;20.60;87.00;;;;;;4897993;29;20441;-90
2022/06/20 01:53:52;;;;;;;7.07;4.55;;;20.60;87.40;;;;;;4907462;29;20388;-90
2022/06/20 01:56:20;;;;;;;8.18;5.32;;;20.60;87.10;;;;;;4928401;29;20031;-90
2022/06/20 01:58:53;;;;;;;13.18;5.03;;;20.60;87.30;;;;;;4908595;29;20024;-89
2022/06/20 02:01:19;;;;;;;9.38;5.05;;;20.60;87.70;;;;;;4911972;29;20045;-89
2022/06/20 02:03:46;;;;;;;6.57;4.78;;;20.60;88.10;;;;;;4897697;29;20037;-88
2022/06/20 02:06:15;;;;;;;6.63;5.30;;;20.60;88.50;;;;;;4900349;29;20039;-88
2022/06/20 02:08:43;;;;;;;7.68;5.03;;;20.50;88.70;;;;;;4911483;29;20083;-90
2022/06/20 02:11:19;;;;;;;13.18;4.93;;;20.50;89.40;;;;;;4923297;29;20503;-88
2022/06/20 02:13:49;;;;;;;7.13;5.00;;;20.40;89.70;;;;;;4904846;29;20067;-89
2022/06/20 02:16:18;;;;;;;11.98;5.30;;;20.40;89.80;;;;;;4908750;29;20033;-90
2022/06/20 02:18:47;;;;;;;8.70;5.50;;;20.40;89.60;;;;;;4921406;29;20036;-89
2022/06/20 02:21:18;;;;;;;7.70;5.28;;;20.40;89.80;;;;;;4902852;29;20040;-90
2022/06/20 02:23:49;;;;;;;7.85;4.97;;;20.30;90.20;;;;;;4919376;29;20036;-90
2022/06/20 02:26:16;;;;;;;9.43;5.30;;;20.30;90.30;;;;;;4936435;29;20024;-89
2022/06/20 02:29:03;;;;;;;11.02;5.68;;;20.30;90.30;;;;;;4936313;29;20015;-88
2022/06/20 02:31:29;;;;;;;9.13;4.90;;;20.30;90.30;;;;;;4897433;29;20413;-89
2022/06/20 02:33:55;;;;;;;6.60;4.90;;;20.20;90.60;;;;;;4890305;29;20028;-89
2022/06/20 02:36:22;;;;;;;7.18;5.78;;;20.10;90.80;;;;;;4925908;29;20151;-89
2022/06/20 02:38:48;;;;;;;8.80;5.50;;;20.10;90.90;;;;;;4911765;29;20072;-89
2022/06/20 02:41:17;;;;;;;7.78;5.25;;;20.00;91.40;;;;;;4905533;29;20119;-89
2022/06/20 02:43:48;;;;;;;9.25;5.40;;;19.90;91.50;;;;;;4900554;29;20052;-89
2022/06/20 02:46:18;;;;;;;5.45;4.53;;;19.80;91.90;;;;;;4917278;29;20574;-89
2022/06/20 02:48:48;;;;;;;8.10;5.18;;;19.80;91.90;;;;;;4907616;29;20095;-89
2022/06/20 02:51:20;;;;;;;5.90;4.75;;;19.80;92.90;;;;;;4924762;29;20044;-89
2022/06/20 02:53:51;;;;;;;9.88;5.00;;;19.70;93.10;;;;;;4921839;29;20032;-89
2022/06/20 02:56:18;;;;;;;;;;;19.80;92.90;;;;;;4914751;29;20029;-88
2022/06/20 02:59:04;;;;;;;6.00;4.80;;;19.80;93.00;;;;;;4910174;29;19954;-90
2022/06/20 03:02:04;;;;;;;12.15;5.60;;;19.80;92.80;;;;;;4899620;29;20047;-89
2022/06/20 03:04:34;;;;;;;9.52;5.45;;;19.80;92.90;;;;;;4904292;29;20944;-89
2022/06/20 03:07:25;;;;;;;8.70;5.75;;;19.80;93.10;;;;;;4922417;29;20119;-89
2022/06/20 03:09:59;;;;;;;6.63;4.50;;;19.80;93.00;;;;;;4889607;29;20036;-89
2022/06/20 03:12:24;;;;;;;12.23;4.90;;;19.90;93.10;;;;;;4920338;29;20040;-89
2022/06/20 03:14:58;;;;;;;7.43;4.72;;;19.90;92.80;;;;;;4899152;29;20035;-90
2022/06/20 03:17:24;;;;;;;8.90;4.82;;;19.90;92.80;;;;;;4892213;29;20024;-89
2022/06/20 03:20:00;;;;;;;8.45;4.80;;;19.90;93.00;;;;;;4921639;29;20484;-89
2022/06/20 03:22:35;;;;;;;8.32;4.90;;;19.80;93.00;;;;;;4900445;29;20048;-90
2022/06/20 03:25:02;;;;;;;8.50;4.68;;;19.80;93.20;;;;;;4911385;29;20031;-90
2022/06/20 03:27:32;;;;;;;8.80;5.15;;;19.80;93.20;;;;;;4914309;29;20036;-88
2022/06/20 03:30:19;;;;;;;8.40;5.13;;;19.80;93.30;;;;;;4910444;29;20028;-88
2022/06/20 03:32:45;;;;;;;7.63;4.57;;;19.80;93.20;;;;;;4881798;29;20057;-89
2022/06/20 03:35:10;;;;;;;8.90;4.85;;;19.80;93.30;;;;;;4902013;29;20027;-89
2022/06/20 03:37:37;;;;;;;6.38;4.57;;;19.80;93.40;;;;;;4924502;29;20034;-89
2022/06/20 03:40:03;;;;;;;9.75;4.78;;;19.80;93.50;;;;;;4920863;29;20024;-87
2022/06/20 03:42:29;;;;;;;9.95;4.57;;;19.70;93.70;;;;;;4915480;29;20122;-89
2022/06/20 03:44:58;;;;;;;6.55;4.82;;;19.70;93.80;;;;;;4902682;29;20024;-89
2022/06/20 03:47:39;;;;;;;10.65;4.72;;;19.70;93.70;;;;;;4897720;29;20492;-89
2022/06/20 03:50:11;;;;;;;9.65;6.13;;;19.60;94.20;;;;;;4910798;29;20028;-89
2022/06/20 03:52:44;;;;;;;9.35;5.28;;;19.60;94.10;;;;;;4916410;29;20028;-89
2022/06/20 03:55:27;;;;;;;9.27;5.90;;;19.60;94.30;;;;;;4900528;29;20481;-90
2022/06/20 03:58:13;;;;;;;7.95;4.82;;;19.60;94.50;;;;;;4922633;29;20050;-89
2022/06/20 04:00:42;;;;;;;7.43;4.78;;;19.70;95.40;;;;;;4883745;29;20033;-90
2022/06/20 04:03:42;;;;;;;9.77;5.50;;;19.80;94.60;;;;;;4912732;29;20036;-88
2022/06/20 04:06:18;;;;;;;7.68;4.88;;;19.90;95.00;;;;;;4904525;29;20060;-88
2022/06/20 04:11:42;;;;;;;6.85;5.32;;;20.30;95.30;;;;;;4903979;29;20067;-89
2022/06/20 04:14:10;;;;;;;8.85;5.13;;;20.50;94.10;;;;;;4879722;29;20024;-89
2022/06/20 04:18:27;;;;;;;11.65;4.75;;;20.70;93.70;;;;;;4907709;29;20557;-90
2022/06/20 04:19:55;;;;;;;10.73;5.47;;;20.80;93.30;;;;;;4919122;29;20054;-89
2022/06/20 04:22:27;;;;;;;11.05;4.82;;;20.80;92.60;;;;;;4927490;29;20032;-88
2022/06/20 04:25:22;;;;;;;8.50;5.32;;;20.60;92.50;;;;;;4902103;29;20524;-90
2022/06/20 04:28:04;;;;;;;6.03;5.25;;;20.40;93.50;;;;;;4923566;29;20047;-89
2022/06/20 04:30:41;;;;;;;7.88;5.25;;;20.30;94.40;;;;;;4899405;29;20036;-91
2022/06/20 04:33:39;;;;;;;8.23;5.38;;;20.10;94.70;;;;;;4904894;29;20033;-91
2022/06/20 04:36:24;;;;;;;13.98;5.60;;;20.10;96.00;;;;;;4894075;29;20058;-90
2022/06/20 04:39:06;;;;;;;10.23;5.53;;;20.00;95.80;;;;;;4916095;29;20033;-93
2022/06/20 04:41:49;;;;;;;7.32;5.20;;;20.00;95.00;;;;;;4916127;29;20047;-94
2022/06/20 04:44:47;;;;;;;7.18;5.45;;;20.00;95.10;;;;;;4884446;29;20039;-92
2022/06/20 04:47:39;;;;;;;6.20;4.95;;;20.20;94.70;;;;;;4891635;29;20123;-93
2022/06/20 04:50:05;;;;;;;;;;;20.40;95.40;;;;;;4906554;29;20035;-93
2022/06/20 04:52:31;;;;;;;12.43;4.88;;;20.60;94.70;;;;;;4906190;29;19934;-94
2022/06/20 04:54:58;;;;;;;14.05;5.45;;;20.70;93.90;;;;;;4915060;29;20032;-92
2022/06/20 04:57:27;;;;;;;7.00;4.88;;;20.80;94.30;;;;;;4914780;29;20040;-92
2022/06/20 04:59:59;;;;;;;9.75;4.57;;;20.90;93.50;;;;;;4900412;29;20032;-92
2022/06/20 05:02:26;;;;;;;9.27;5.43;;;21.00;93.30;;;;;;4909058;29;20441;-93
2022/06/20 05:04:55;;;;;;;7.90;4.55;;;21.00;93.60;;;;;;4939709;29;20032;-93
2022/06/20 05:07:31;;;;;;;8.88;4.72;;;21.00;93.30;;;;;;4934266;29;20042;-92
2022/06/20 05:10:14;;;;;;;9.88;5.05;;;21.00;93.20;;;;;;4898732;29;20025;-92
2022/06/20 05:12:56;;;;;;;8.23;4.63;;;21.00;92.40;;;;;;4938002;29;20028;-92
2022/06/20 05:15:44;;;;;;;6.72;4.90;;;21.00;91.80;;;;;;4936271;29;20032;-92
2022/06/20 05:18:22;;;;;;;7.07;4.97;;;20.90;92.00;;;;;;4911348;29;20028;-92
2022/06/20 05:20:48;;;;;;;8.75;5.20;;;20.80;92.00;;;;;;4883776;29;20045;-93
2022/06/20 05:23:23;;;;;;;7.43;5.00;;;20.70;92.20;;;;;;4889839;29;20489;-94
2022/06/20 05:25:51;;;;;;;6.75;5.28;;;20.60;92.40;;;;;;4884149;29;20060;-92
2022/06/20 05:28:21;;;;;;;11.43;5.40;;;20.60;92.50;;;;;;4908150;29;20044;-93
2022/06/20 05:30:47;;;;;;;8.60;5.70;;;20.50;92.50;;;;;;4921518;29;20120;-92
2022/06/20 05:33:33;;;;;;;9.23;5.93;;;20.50;93.00;;;;;;4908368;29;20115;-91
2022/06/20 05:36:25;;;;;;;11.73;6.47;;;20.70;92.90;;;;;;4887998;29;20041;-93
2022/06/20 05:39:16;;;;;;;12.02;5.70;;;21.10;92.80;;;;;;4891216;29;20531;-93
2022/06/20 05:41:44;;;;;;;7.60;4.90;;;21.80;91.50;;;;;;4899099;29;20452;-93
2022/06/20 05:44:12;;;;;;;8.82;5.65;;;22.50;89.90;;;;;;4900106;29;20032;-93
2022/06/20 05:46:45;;;;;;;10.27;6.63;;;22.80;87.80;;;;;;4926939;29;20027;-94
2022/06/20 05:49:20;;;;;;;11.40;5.85;;;23.20;88.10;;;;;;4924639;29;20043;-93
2022/06/20 05:51:46;;;;;;;9.02;6.55;;;23.20;86.50;;;;;;4911557;29;20052;-93
2022/06/20 05:54:24;;;;;;;10.60;5.90;;;23.40;85.40;;;;;;4920572;29;20496;-93
2022/06/20 05:56:56;;;;;;;8.13;7.10;;;23.20;84.40;;;;;;4909126;29;20068;-93
2022/06/20 05:59:28;;;;;;;10.27;7.25;;;23.00;85.90;;;;;;4899497;29;20033;-92
2022/06/20 06:01:59;;;;;;;13.65;8.57;;;22.90;86.40;;;;;;4918213;29;20043;-92
2022/06/20 06:04:35;;;;;;;15.98;7.97;;;22.70;86.50;;;;;;4907077;29;20036;-93
2022/06/20 06:07:05;;;;;;;9.18;8.27;;;22.70;87.00;;;;;;4909043;29;20509;-92
2022/06/20 06:09:52;;;;;;;14.13;9.32;;;22.80;86.80;;;;;;4910535;29;20745;-92
2022/06/20 06:12:26;;;;;;;34.20;10.38;;;23.50;85.70;;;;;;4899928;29;20040;-92
2022/06/20 06:15:04;;;;;;;11.25;7.72;;;24.20;82.70;;;;;;4922397;29;20032;-92
2022/06/20 06:18:03;;;;;;;14.00;8.13;;;24.80;80.20;;;;;;4916732;29;20029;-94
2022/06/20 06:20:31;;;;;;;9.70;8.35;;;25.60;76.00;;;;;;4897630;29;20034;-93
2022/06/20 06:23:00;;;;;;;9.07;7.30;;;25.90;74.90;;;;;;4932448;29;20047;-92
2022/06/20 06:25:37;;;;;;;9.77;7.88;;;25.80;75.40;;;;;;4918005;29;20456;-91
2022/06/20 06:28:19;;;;;;;12.73;8.25;;;25.20;75.30;;;;;;4936326;29;20127;-91
2022/06/20 06:30:56;;;;;;;14.35;8.35;;;24.70;76.80;;;;;;4932629;29;20031;-91
2022/06/20 06:33:45;;;;;;;9.38;8.18;;;24.50;79.30;;;;;;4936651;29;20036;-91
2022/06/20 06:36:43;;;;;;;12.10;8.02;;;24.20;78.70;;;;;;4920541;29;20405;-92
2022/06/20 06:39:23;;;;;;;10.00;8.55;;;24.50;79.60;;;;;;4917734;29;20088;-91
2022/06/20 06:41:54;;;;;;;8.93;8.03;;;24.60;78.90;;;;;;4916989;29;20031;-92
2022/06/20 06:44:33;;;;;;;10.00;7.47;;;24.50;78.40;;;;;;4903418;29;20492;-90
2022/06/20 06:46:59;;;;;;;11.85;9.07;;;24.20;79.20;;;;;;4931666;29;20036;-92
2022/06/20 06:49:42;;;;;;;9.60;8.18;;;24.10;79.80;;;;;;4913655;29;20036;-92
2022/06/20 06:52:43;;;;;;;10.93;8.50;;;24.00;80.80;;;;;;4887870;29;20031;-92
2022/06/20 06:55:29;;;;;;;10.75;8.00;;;24.00;80.30;;;;;;4898515;29;20035;-92
2022/06/20 06:58:15;;;;;;;9.75;8.43;;;23.90;80.60;;;;;;4905776;29;20056;-91
2022/06/20 07:00:46;;;;;;;12.45;8.93;;;23.80;80.30;;;;;;4848124;29;20119;-94
2022/06/20 07:03:19;;;;;;;9.73;7.60;;;23.70;80.30;;;;;;4914167;29;20500;-92
2022/06/20 07:06:00;;;;;;;12.10;8.77;;;23.70;79.70;;;;;;4925116;29;20496;-92
2022/06/20 07:08:30;;;;;;;10.75;8.90;;;23.60;80.50;;;;;;4898503;29;20456;-90
2022/06/20 07:11:06;;;;;;;12.85;9.27;;;23.50;81.90;;;;;;4911830;29;20090;-91
2022/06/20 07:14:01;;;;;;;12.38;8.35;;;23.50;80.70;;;;;;4920741;29;20067;-93
2022/06/20 07:16:50;;;;;;;18.27;9.38;;;23.40;81.20;;;;;;4899564;29;20165;-91
2022/06/20 07:19:16;;;;;;;12.50;8.55;;;23.40;80.90;;;;;;4899689;29;20036;-94
2022/06/20 07:21:43;;;;;;;11.00;8.50;;;23.50;80.90;;;;;;4902801;29;20087;-93
2022/06/20 07:24:20;;;;;;;10.65;7.85;;;23.50;80.60;;;;;;4930373;29;20039;-92
2022/06/20 07:27:16;;;;;;;12.18;8.60;;;23.60;80.50;;;;;;4917305;29;20032;-92
2022/06/20 07:30:10;;;;;;;14.98;8.82;;;23.70;80.20;;;;;;4918054;29;20032;-93
2022/06/20 07:32:39;;;;;;;10.45;9.10;;;24.00;79.50;;;;;;4924760;29;20110;-91
2022/06/20 07:35:14;;;;;;;9.43;8.50;;;24.20;78.30;;;;;;4918989;29;20024;-92
2022/06/20 07:37:43;;;;;;;11.23;8.55;;;24.40;78.90;;;;;;4909047;29;20460;-93
2022/06/20 07:40:24;;;;;;;12.10;9.27;;;24.40;79.40;;;;;;4933816;29;20123;-91
2022/06/20 07:43:05;;;;;;;;;;;24.50;78.60;;;;;;4898027;29;20037;-92
2022/06/20 07:45:46;;;;;;;11.13;8.88;;;24.30;78.70;;;;;;4917567;29;20291;-92
2022/06/20 07:48:19;;;;;;;9.15;8.18;;;24.10;79.60;;;;;;4907782;29;20048;-93
2022/06/20 07:51:08;;;;;;;11.07;8.40;;;23.80;80.80;;;;;;4907755;29;20028;-92
2022/06/20 07:53:33;;;;;;;11.90;9.82;;;23.50;81.50;;;;;;4909190;29;20028;-91
2022/06/20 07:56:03;;;;;;;10.52;8.68;;;23.40;82.80;;;;;;4927166;29;20086;-90
2022/06/20 07:58:33;;;;;;;13.70;9.40;;;23.40;82.70;;;;;;4926285;29;20119;-91
2022/06/20 08:01:01;;;;;;;15.80;9.23;;;23.40;82.00;;;;;;4915113;29;20035;-92
2022/06/20 08:03:38;;;;;;;12.88;9.90;;;23.40;83.00;;;;;;4923855;29;20032;-92
2022/06/20 08:06:06;;;;;;;17.27;9.60;;;23.30;83.10;;;;;;4905432;29;20032;-92
2022/06/20 08:08:46;;;;;;;14.35;10.40;;;23.20;83.60;;;;;;4930143;29;20039;-92
2022/06/20 08:11:40;;;;;;;12.05;9.60;;;23.10;84.00;;;;;;4919336;29;20111;-88
2022/06/20 08:14:03;;;;;;;13.52;10.20;;;23.10;83.80;;;;;;4914648;29;20028;-90
2022/06/20 08:16:31;;;;;;;16.25;10.38;;;23.10;84.30;;;;;;4924759;29;20064;-90
2022/06/20 08:18:58;;;;;;;15.48;10.20;;;23.20;84.10;;;;;;4921078;29;20626;-91
2022/06/20 08:21:38;;;;;;;14.65;9.30;;;23.40;83.50;;;;;;4914408;29;20036;-91
2022/06/20 08:24:15;;;;;;;20.40;9.75;;;23.90;83.60;;;;;;4922267;29;20032;-89
2022/06/20 08:26:52;;;;;;;10.13;9.13;;;25.10;81.40;;;;;;4925789;29;20438;-90
2022/06/20 08:29:40;;;;;;;12.88;8.52;;;26.50;75.20;;;;;;4903476;29;20024;-90
2022/06/20 08:32:16;;;;;;;17.20;8.48;;;27.60;72.00;;;;;;4908308;29;20099;-91
2022/06/20 08:34:58;;;;;;;12.63;8.63;;;28.10;68.50;;;;;;4886552;29;20054;-91
2022/06/20 08:37:29;;;;;;;12.07;8.75;;;28.30;67.80;;;;;;4919930;29;20035;-92
2022/06/20 08:40:07;;;;;;;16.35;8.57;;;28.40;68.10;;;;;;4911473;29;20040;-90
2022/06/20 08:42:54;;;;;;;13.63;9.00;;;28.70;66.90;;;;;;4885576;29;20028;-90
2022/06/20 08:45:28;;;;;;;10.68;9.02;;;28.80;67.00;;;;;;4917205;29;20826;-90
2022/06/20 08:48:03;;;;;;;10.60;7.97;;;29.00;66.40;;;;;;4921435;29;20044;-91
2022/06/20 08:50:46;;;;;;;14.68;9.13;;;29.50;65.40;;;;;;4907139;29;20028;-91
2022/06/20 08:53:31;;;;;;;13.40;7.93;;;29.90;63.30;;;;;;4915005;29;20054;-91
2022/06/20 08:56:19;;;;;;;11.70;7.80;;;29.90;63.10;;;;;;4910407;29;20099;-91
2022/06/20 08:59:02;;;;;;;9.52;8.32;;;29.70;62.00;;;;;;4920740;29;20085;-90
2022/06/20 09:01:34;;;;;;;9.05;8.10;;;29.40;63.90;;;;;;4877082;29;20036;-91
2022/06/20 09:04:21;;;;;;;8.68;7.35;;;29.90;63.80;;;;;;4929470;29;20040;-91
2022/06/20 09:07:12;;;;;;;10.85;7.93;;;31.00;61.70;;;;;;4921050;29;20404;-92
2022/06/20 09:09:49;;;;;;;;;;;31.70;57.80;;;;;;4915025;29;20033;-91
2022/06/20 09:12:27;;;;;;;12.60;7.70;;;32.00;57.10;;;;;;4905803;29;19919;-92
2022/06/20 09:15:17;;;;;;;12.43;7.47;;;32.50;56.80;;;;;;4887384;29;20039;-92
2022/06/20 09:18:01;;;;;;;9.07;7.00;;;33.10;55.30;;;;;;4894612;29;20032;-92
2022/06/20 09:20:48;;;;;;;11.55;7.22;;;33.60;54.50;;;;;;4919545;29;20034;-90
2022/06/20 09:23:28;;;;;;;9.10;7.10;;;34.30;52.30;;;;;;4905791;29;20108;-91
2022/06/20 09:25:53;;;;;;;12.47;8.10;;;34.30;51.70;;;;;;4922450;29;20084;-91
2022/06/20 09:28:46;;;;;;;13.13;7.35;;;33.80;52.40;;;;;;4916889;29;20040;-88
2022/06/20 09:31:49;;;;;;;9.68;7.20;;;33.10;53.40;;;;;;4925758;29;20029;-91
2022/06/20 09:34:21;;;;;;;14.77;7.72;;;32.60;54.70;;;;;;4904571;29;20033;-93
2022/06/20 09:36:46;;;;;;;13.65;6.40;;;32.20;55.80;;;;;;4927185;29;20032;-91
2022/06/20 09:39:35;;;;;;;7.70;6.57;;;32.10;55.80;;;;;;4911380;29;20091;-92
2022/06/20 09:42:24;;;;;;;12.90;6.82;;;31.70;56.90;;;;;;4907750;29;20119;-92
2022/06/20 09:45:22;;;;;;;12.57;6.45;;;31.40;56.50;;;;;;4920285;29;20032;-92
2022/06/20 09:48:22;;;;;;;10.88;6.22;;;31.10;57.40;;;;;;4915852;29;20032;-91
2022/06/20 09:51:03;;;;;;;8.88;6.30;;;31.40;57.70;;;;;;4920925;29;20036;-90
2022/06/20 09:54:06;;;;;;;9.27;5.38;;;32.00;55.80;;;;;;4916976;29;20033;-92
2022/06/20 09:56:51;;;;;;;8.00;5.03;;;32.20;55.80;;;;;;4888403;29;20048;-92
2022/06/20 09:59:35;;;;;;;6.13;4.40;;;32.50;56.00;;;;;;4900738;29;20064;-92
2022/06/20 10:02:13;;;;;;;9.35;4.20;;;33.30;54.10;;;;;;4903235;29;20044;-90
2022/06/20 10:05:02;;;;;;;8.65;4.70;;;34.20;52.70;;;;;;4928067;29;20036;-90
2022/06/20 10:07:39;;;;;;;8.98;4.43;;;34.90;51.70;;;;;;4898121;29;20174;-93
2022/06/20 10:10:29;;;;;;;4.82;3.35;;;35.60;49.00;;;;;;4909947;29;20063;-91
2022/06/20 10:13:22;;;;;;;4.65;2.92;;;35.80;48.10;;;;;;4904228;29;20039;-91
2022/06/20 10:15:50;;;;;;;5.70;3.35;;;35.80;47.00;;;;;;4901219;29;20048;-90
2022/06/20 10:18:31;;;;;;;7.72;2.83;;;36.00;47.50;;;;;;4893370;29;20044;-92
2022/06/20 10:21:26;;;;;;;7.22;3.47;;;36.60;46.80;;;;;;4908676;29;20515;-91
2022/06/20 10:24:10;;;;;;;3.55;2.58;;;36.90;45.60;;;;;;4887496;29;20493;-90
2022/06/20 10:27:08;;;;;;;5.25;2.75;;;36.40;45.70;;;;;;4901890;29;20051;-90
2022/06/20 10:29:49;;;;;;;8.48;2.35;;;36.50;46.60;;;;;;4906674;29;20029;-91
2022/06/20 10:32:19;;;;;;;4.50;2.20;;;36.60;45.50;;;;;;4898619;29;20025;-91
2022/06/20 10:35:08;;;;;;;6.72;2.28;;;36.80;46.40;;;;;;4907485;29;20040;-93
2022/06/20 10:37:42;;;;;;;6.88;2.67;;;37.10;45.50;;;;;;4906931;29;20107;-91
2022/06/20 10:40:32;;;;;;;6.65;2.42;;;36.80;45.20;;;;;;4912711;29;20442;-92
2022/06/20 10:43:15;;;;;;;3.72;1.67;;;36.20;46.10;;;;;;4916317;29;20024;-90
2022/06/20 10:45:53;;;;;;;7.88;2.65;;;35.50;46.10;;;;;;4923269;29;20036;-91
2022/06/20 10:48:21;;;;;;;5.78;2.28;;;35.40;47.20;;;;;;4907559;29;20088;-90
2022/06/20 10:50:58;;;;;;;6.72;2.08;;;35.40;47.10;;;;;;4918911;29;20036;-90
2022/06/20 10:53:31;;;;;;;5.57;1.90;;;35.10;47.10;;;;;;4915844;29;20444;-92
2022/06/20 10:56:22;;;;;;;3.42;1.70;;;34.90;47.80;;;;;;4919863;29;20073;-92
2022/06/20 10:58:57;;;;;;;4.50;1.88;;;34.40;47.20;;;;;;4899879;29;20036;-91
2022/06/20 11:01:50;;;;;;;4.15;2.13;;;33.50;49.10;;;;;;4916050;29;20047;-90
2022/06/20 11:04:52;;;;;;;5.93;1.55;;;33.20;49.70;;;;;;4901111;29;20047;-91
2022/06/20 11:07:50;;;;;;;4.57;1.23;;;32.80;50.10;;;;;;4911017;29;20405;-92
2022/06/20 11:10:52;;;;;;;4.80;1.70;;;32.50;49.60;;;;;;4924846;29;20020;-89
2022/06/20 11:13:37;;;;;;;5.22;1.20;;;32.10;50.20;;;;;;4926794;29;20493;-90
2022/06/20 11:16:28;;;;;;;6.25;1.83;;;31.90;51.20;;;;;;4893877;29;20036;-89
2022/06/20 11:19:35;;;;;;;5.82;1.55;;;32.50;51.60;;;;;;4930087;29;20035;-90
2022/06/20 11:22:24;;;;;;;2.95;1.33;;;33.10;49.70;;;;;;4885219;29;20033;-90
2022/06/20 11:25:17;;;;;;;3.85;1.20;;;32.60;50.40;;;;;;4888569;29;20032;-90
2022/06/20 11:27:51;;;;;;;6.63;1.30;;;32.10;51.10;;;;;;4916077;29;20492;-89
2022/06/20 11:30:23;;;;;;;3.40;1.52;;;31.40;51.30;;;;;;4922110;29;20061;-90
2022/06/20 11:33:13;;;;;;;3.28;1.10;;;30.80;52.50;;;;;;4912583;29;20513;-90
2022/06/20 11:35:48;;;;;;;4.70;1.20;;;30.30;54.00;;;;;;4914870;29;20445;-90
2022/06/20 11:38:32;;;;;;;7.65;1.35;;;29.70;54.60;;;;;;4903278;29;20418;-90
2022/06/20 11:41:15;;;;;;;6.80;1.50;;;29.00;56.10;;;;;;4918177;29;20017;-91
2022/06/20 11:44:06;;;;;;;5.18;1.30;;;28.40;57.70;;;;;;4890132;29;20064;-91
2022/06/20 11:46:51;;;;;;;;;;;27.70;59.40;;;;;;4896811;29;20028;-91
2022/06/20 11:49:35;;;;;;;8.20;2.45;;;27.10;60.80;;;;;;4916834;29;19919;-89
2022/06/20 11:52:09;;;;;;;5.00;2.15;;;26.60;63.40;;;;;;4912167;29;20144;-92
2022/06/20 11:54:46;;;;;;;4.65;1.95;;;26.50;63.60;;;;;;4928101;29;20503;-90
2022/06/20 11:57:27;;;;;;;4.75;2.60;;;26.60;63.50;;;;;;4921371;29;20407;-93
2022/06/20 12:00:09;;;;;;;5.28;2.15;;;26.40;63.60;;;;;;4903771;29;20028;-90
2022/06/20 12:03:00;;;;;;;5.80;1.83;;;26.10;65.00;;;;;;4920856;29;20119;-91
2022/06/20 12:05:36;;;;;;;11.77;2.53;;;25.70;65.70;;;;;;4915509;29;20024;-89
2022/06/20 12:08:19;;;;;;;9.15;2.45;;;25.30;67.00;;;;;;4904767;29;20036;-89
2022/06/20 12:10:59;;;;;;;6.93;2.22;;;25.00;68.40;;;;;;4911673;29;20040;-89
2022/06/20 12:13:48;;;;;;;10.65;2.40;;;24.80;69.30;;;;;;4909764;29;20115;-88
2022/06/20 12:16:26;;;;;;;5.13;2.30;;;24.60;70.00;;;;;;4909618;29;20036;-90
2022/06/20 12:24:49;;;;;;;5.40;1.73;;;23.80;72.80;;;;;;4921128;29;20055;-88
2022/06/20 12:27:18;;;;;;;;;;;23.50;73.60;;;;;;4921367;29;20087;-89
2022/06/20 12:29:45;;;;;;;6.03;2.80;;;23.40;74.40;;;;;;4914877;29;19911;-90
2022/06/20 12:32:18;;;;;;;3.53;1.90;;;23.40;74.60;;;;;;4906997;29;20748;-89
2022/06/20 12:34:58;;;;;;;5.15;2.58;;;23.20;75.10;;;;;;4920072;29;20026;-88
2022/06/20 12:37:43;;;;;;;5.32;2.15;;;23.20;74.90;;;;;;4901245;29;20032;-90
2022/06/20 12:40:29;;;;;;;7.95;2.30;;;22.90;75.20;;;;;;4896237;29;20092;-91
2022/06/20 12:43:13;;;;;;;4.05;2.15;;;22.80;75.60;;;;;;4897593;29;20065;-89
2022/06/20 12:45:48;;;;;;;6.30;2.42;;;22.60;76.50;;;;;;4903094;29;20032;-89
2022/06/20 12:48:45;;;;;;;3.38;2.30;;;22.40;76.90;;;;;;4905573;29;20076;-91
2022/06/20 12:51:19;;;;;;;3.10;2.42;;;22.10;78.10;;;;;;4911601;29;20070;-90
2022/06/20 12:54:00;;;;;;;2.75;2.22;;;21.90;78.80;;;;;;4913454;29;20084;-90
2022/06/20 12:56:40;;;;;;;3.67;1.98;;;21.80;79.10;;;;;;4898175;29;20028;-88
2022/06/20 12:59:29;;;;;;;5.00;2.80;;;21.70;79.80;;;;;;4911702;29;20102;-88
2022/06/20 13:02:18;;;;;;;6.25;2.20;;;21.60;80.60;;;;;;4896815;29;20273;-91
2022/06/20 13:04:47;;;;;;;4.10;2.08;;;21.50;80.50;;;;;;4902103;29;20091;-93
2022/06/20 13:07:18;;;;;;;3.72;2.30;;;21.40;80.70;;;;;;4914173;29;20028;-92
2022/06/20 13:09:56;;;;;;;2.90;1.80;;;21.30;80.80;;;;;;4890241;29;20032;-89
2022/06/20 13:12:38;;;;;;;2.60;2.30;;;21.20;80.90;;;;;;4914780;29;20036;-90
2022/06/20 13:15:21;;;;;;;2.60;1.90;;;21.10;81.50;;;;;;4896615;29;20081;-88
2022/06/20 13:18:16;;;;;;;2.40;1.80;;;21.00;82.30;;;;;;4903898;29;20040;-92
2022/06/20 13:20:47;;;;;;;2.50;2.00;;;21.00;82.70;;;;;;4910482;29;20040;-92
2022/06/20 13:23:40;;;;;;;2.35;2.03;;;21.10;82.90;;;;;;4909338;29;20093;-93
2022/06/20 13:26:23;;;;;;;3.05;1.83;;;21.10;82.20;;;;;;4901619;29;20027;-89
2022/06/20 13:28:57;;;;;;;2.70;1.77;;;21.00;81.90;;;;;;4906159;29;20095;-91
2022/06/20 13:31:34;;;;;;;1.85;1.75;;;21.10;81.10;;;;;;4918611;29;20507;-91
2022/06/20 13:34:28;;;;;;;5.88;2.03;;;21.10;81.70;;;;;;4923550;29;20027;-92
2022/06/20 13:37:14;;;;;;;2.83;1.92;;;21.20;81.30;;;;;;4930588;29;20056;-93
2022/06/20 13:40:12;;;;;;;4.05;1.95;;;21.20;80.90;;;;;;4912445;29;20032;-90
2022/06/20 13:42:53;;;;;;;4.18;1.95;;;21.40;81.00;;;;;;4902820;29;20516;-89
2022/06/20 13:45:23;;;;;;;2.72;2.03;;;21.40;81.10;;;;;;4884603;29;20037;-93
2022/06/20 13:48:17;;;;;;;2.38;1.83;;;21.50;79.80;;;;;;4892694;29;20040;-91
2022/06/20 13:50:45;;;;;;;1.80;1.67;;;21.30;80.50;;;;;;4900460;29;20524;-94
2022/06/20 13:53:37;;;;;;;2.72;1.80;;;21.20;80.80;;;;;;4893978;29;20131;-90
2022/06/20 13:56:23;;;;;;;3.00;2.33;;;21.10;81.80;;;;;;4894696;29;20469;-92